sensor_id;sensor_type;location;lat;lon;timestamp;temperature;humidity
5476;DHT22;2760;50.000;9.194;2022-11-15T00:00:44;10.90;99.90
5476;DHT22;2760;50.000;9.194;2022-11-15T00:03:30;10.90;99.90
5476;DHT22;2760;50.000;9.194;2022-11-15T00:06:18;10.80;99.90
5476;DHT22;2760;50.000;9.194;2022-11-15T00:09:04;10.70;99.90
5476;DHT22;2760;50.000;9.194;2022-11-15T00:11:51;12.80;99.90
5476;DHT22;2760;50.000;9.194;2022-11-15T00:14:39;10.60;99.90
5476;DHT22;2760;50.000;9.194;2022-11-15T00:17:26;10.70;99.90
5476;DHT22;2760;50.000;9.194;2022-11-15T00:20:15;10.70;99.90
5476;DHT22;2760;50.000;9.194;2022-11-15T00:23:03;10.60;99.90
5476;DHT22;2760;50.000;9.194;2022-11-15T00:25:56;10.70;99.90
5476;DHT22;2760;50.000;9.194;2022-11-15T00:28:43;9.60;99.90
5476;DHT22;2760;50.000;9.194;2022-11-15T00:31:30;12.80;99.90
5476;DHT22;2760;50.000;9.194;2022-11-15T00:34:17;13.00;99.90
5476;DHT22;2760;50.000;9.194;2022-11-15T00:37:05;10.60;99.90
5476;DHT22;2760;50.000;9.194;2022-11-15T00:39:54;10.80;99.90
5476;DHT22;2760;50.000;9.194;2022-11-15T00:42:40;12.00;99.90
5476;DHT22;2760;50.000;9.194;2022-11-15T00:45:28;10.40;99.90
5476;DHT22;2760;50.000;9.194;2022-11-15T00:48:13;10.40;99.90
5476;DHT22;2760;50.000;9.194;2022-11-15T00:51:00;10.40;99.90
5476;DHT22;2760;50.000;9.194;2022-11-15T00:53:47;10.20;99.90
5476;DHT22;2760;50.000;9.194;2022-11-15T00:56:34;11.80;99.90
5476;DHT22;2760;50.000;9.194;2022-11-15T00:59:20;10.80;99.90
5476;DHT22;2760;50.000;9.194;2022-11-15T01:02:07;10.20;99.90
5476;DHT22;2760;50.000;9.194;2022-11-15T01:04:53;10.80;99.90
5476;DHT22;2760;50.000;9.194;2022-11-15T01:07:38;10.30;99.90
5476;DHT22;2760;50.000;9.194;2022-11-15T01:10:24;10.30;99.90
5476;DHT22;2760;50.000;9.194;2022-11-15T01:13:12;11.60;99.90
5476;DHT22;2760;50.000;9.194;2022-11-15T01:15:58;11.90;99.90
5476;DHT22;2760;50.000;9.194;2022-11-15T01:18:44;10.20;99.90
5476;DHT22;2760;50.000;9.194;2022-11-15T01:21:30;12.20;99.90
5476;DHT22;2760;50.000;9.194;2022-11-15T01:24:17;10.20;99.90
5476;DHT22;2760;50.000;9.194;2022-11-15T01:27:03;10.10;99.90
5476;DHT22;2760;50.000;9.194;2022-11-15T01:29:59;10.10;99.90
5476;DHT22;2760;50.000;9.194;2022-11-15T01:32:46;10.20;99.90
5476;DHT22;2760;50.000;9.194;2022-11-15T01:35:31;12.00;99.90
5476;DHT22;2760;50.000;9.194;2022-11-15T01:38:17;10.00;99.90
5476;DHT22;2760;50.000;9.194;2022-11-15T01:41:04;10.00;99.90
5476;DHT22;2760;50.000;9.194;2022-11-15T01:43:52;9.90;99.90
5476;DHT22;2760;50.000;9.194;2022-11-15T01:46:44;10.00;99.90
5476;DHT22;2760;50.000;9.194;2022-11-15T01:49:34;9.90;99.90
5476;DHT22;2760;50.000;9.194;2022-11-15T01:52:23;11.40;99.90
5476;DHT22;2760;50.000;9.194;2022-11-15T01:55:14;10.00;99.90
5476;DHT22;2760;50.000;9.194;2022-11-15T01:58:04;11.50;99.90
5476;DHT22;2760;50.000;9.194;2022-11-15T02:00:51;12.30;99.90
5476;DHT22;2760;50.000;9.194;2022-11-15T02:03:52;12.30;99.90
5476;DHT22;2760;50.000;9.194;2022-11-15T02:06:44;10.00;99.90
5476;DHT22;2760;50.000;9.194;2022-11-15T02:09:33;10.00;99.90
5476;DHT22;2760;50.000;9.194;2022-11-15T02:12:20;10.00;99.90
5476;DHT22;2760;50.000;9.194;2022-11-15T02:15:09;11.90;99.90
5476;DHT22;2760;50.000;9.194;2022-11-15T02:18:07;9.90;99.90
5476;DHT22;2760;50.000;9.194;2022-11-15T02:21:15;10.50;99.90
5476;DHT22;2760;50.000;9.194;2022-11-15T02:24:25;9.90;99.90
5476;DHT22;2760;50.000;9.194;2022-11-15T02:30:40;10.70;99.90
5476;DHT22;2760;50.000;9.194;2022-11-15T02:33:34;10.00;99.90
5476;DHT22;2760;50.000;9.194;2022-11-15T02:36:33;12.10;99.90
5476;DHT22;2760;50.000;9.194;2022-11-15T02:39:25;11.10;99.90
5476;DHT22;2760;50.000;9.194;2022-11-15T02:42:17;8.90;99.90
5476;DHT22;2760;50.000;9.194;2022-11-15T02:45:25;10.30;99.90
5476;DHT22;2760;50.000;9.194;2022-11-15T02:48:15;11.50;99.90
5476;DHT22;2760;50.000;9.194;2022-11-15T02:51:01;10.00;99.90
5476;DHT22;2760;50.000;9.194;2022-11-15T02:53:47;10.20;99.90
5476;DHT22;2760;50.000;9.194;2022-11-15T02:56:34;9.90;99.90
5476;DHT22;2760;50.000;9.194;2022-11-15T03:02:52;11.20;99.90
5476;DHT22;2760;50.000;9.194;2022-11-15T03:05:55;9.90;99.90
5476;DHT22;2760;50.000;9.194;2022-11-15T03:08:53;11.60;99.90
5476;DHT22;2760;50.000;9.194;2022-11-15T03:11:41;11.30;99.90
5476;DHT22;2760;50.000;9.194;2022-11-15T03:14:32;10.00;99.90
5476;DHT22;2760;50.000;9.194;2022-11-15T03:17:23;10.60;99.90
5476;DHT22;2760;50.000;9.194;2022-11-15T03:20:10;11.80;99.90
5476;DHT22;2760;50.000;9.194;2022-11-15T03:23:05;9.90;99.90
5476;DHT22;2760;50.000;9.194;2022-11-15T03:25:52;11.50;99.90
5476;DHT22;2760;50.000;9.194;2022-11-15T03:28:44;11.70;99.90
5476;DHT22;2760;50.000;9.194;2022-11-15T03:31:36;11.20;99.90
5476;DHT22;2760;50.000;9.194;2022-11-15T03:34:38;9.90;99.90
5476;DHT22;2760;50.000;9.194;2022-11-15T03:37:29;11.30;99.90
5476;DHT22;2760;50.000;9.194;2022-11-15T03:40:21;9.80;99.90
5476;DHT22;2760;50.000;9.194;2022-11-15T03:43:24;12.40;99.90
5476;DHT22;2760;50.000;9.194;2022-11-15T03:46:16;9.90;99.90
5476;DHT22;2760;50.000;9.194;2022-11-15T03:49:09;11.50;99.90
5476;DHT22;2760;50.000;9.194;2022-11-15T03:51:57;9.90;99.90
5476;DHT22;2760;50.000;9.194;2022-11-15T03:54:49;12.00;99.90
5476;DHT22;2760;50.000;9.194;2022-11-15T03:57:36;11.50;99.90
5476;DHT22;2760;50.000;9.194;2022-11-15T04:00:22;10.10;99.90
5476;DHT22;2760;50.000;9.194;2022-11-15T04:03:08;9.70;99.90
5476;DHT22;2760;50.000;9.194;2022-11-15T04:05:54;11.20;99.90
5476;DHT22;2760;50.000;9.194;2022-11-15T04:08:40;10.70;99.90
5476;DHT22;2760;50.000;9.194;2022-11-15T04:11:27;11.60;99.90
5476;DHT22;2760;50.000;9.194;2022-11-15T04:14:14;9.60;99.90
5476;DHT22;2760;50.000;9.194;2022-11-15T04:17:00;10.80;99.90
5476;DHT22;2760;50.000;9.194;2022-11-15T04:19:53;9.40;99.90
5476;DHT22;2760;50.000;9.194;2022-11-15T04:22:57;11.40;99.90
5476;DHT22;2760;50.000;9.194;2022-11-15T04:26:02;10.60;99.90
5476;DHT22;2760;50.000;9.194;2022-11-15T04:28:48;11.50;99.90
5476;DHT22;2760;50.000;9.194;2022-11-15T04:31:53;10.80;99.90
5476;DHT22;2760;50.000;9.194;2022-11-15T04:34:39;9.60;99.90
5476;DHT22;2760;50.000;9.194;2022-11-15T04:37:25;9.60;99.90
5476;DHT22;2760;50.000;9.194;2022-11-15T04:40:11;12.00;99.90
5476;DHT22;2760;50.000;9.194;2022-11-15T04:42:57;10.90;99.90
5476;DHT22;2760;50.000;9.194;2022-11-15T04:45:43;8.10;99.90
5476;DHT22;2760;50.000;9.194;2022-11-15T04:48:31;9.70;99.90
5476;DHT22;2760;50.000;9.194;2022-11-15T04:51:19;10.20;99.90
5476;DHT22;2760;50.000;9.194;2022-11-15T04:54:05;11.70;99.90
5476;DHT22;2760;50.000;9.194;2022-11-15T04:56:51;9.50;99.90
5476;DHT22;2760;50.000;9.194;2022-11-15T04:59:37;9.60;99.90
5476;DHT22;2760;50.000;9.194;2022-11-15T05:02:22;9.60;99.90
5476;DHT22;2760;50.000;9.194;2022-11-15T05:05:09;11.70;99.90
5476;DHT22;2760;50.000;9.194;2022-11-15T05:07:54;11.60;99.90
5476;DHT22;2760;50.000;9.194;2022-11-15T05:10:40;11.10;99.90
5476;DHT22;2760;50.000;9.194;2022-11-15T05:13:26;9.60;99.90
5476;DHT22;2760;50.000;9.194;2022-11-15T05:16:15;11.80;99.90
5476;DHT22;2760;50.000;9.194;2022-11-15T05:19:01;11.20;99.90
5476;DHT22;2760;50.000;9.194;2022-11-15T05:21:50;9.60;99.90
5476;DHT22;2760;50.000;9.194;2022-11-15T05:24:36;9.70;99.90
5476;DHT22;2760;50.000;9.194;2022-11-15T05:27:21;10.90;99.90
5476;DHT22;2760;50.000;9.194;2022-11-15T05:30:08;10.40;99.90
5476;DHT22;2760;50.000;9.194;2022-11-15T05:32:53;9.60;99.90
5476;DHT22;2760;50.000;9.194;2022-11-15T05:35:45;11.90;99.90
5476;DHT22;2760;50.000;9.194;2022-11-15T05:38:33;9.50;99.90
5476;DHT22;2760;50.000;9.194;2022-11-15T05:41:22;9.60;99.90
5476;DHT22;2760;50.000;9.194;2022-11-15T05:44:12;9.60;99.90
5476;DHT22;2760;50.000;9.194;2022-11-15T05:47:00;11.90;99.90
5476;DHT22;2760;50.000;9.194;2022-11-15T05:49:48;11.20;99.90
5476;DHT22;2760;50.000;9.194;2022-11-15T05:52:36;11.90;99.90
5476;DHT22;2760;50.000;9.194;2022-11-15T05:55:26;9.60;99.90
5476;DHT22;2760;50.000;9.194;2022-11-15T05:58:12;11.30;99.90
5476;DHT22;2760;50.000;9.194;2022-11-15T06:00:57;10.80;99.90
5476;DHT22;2760;50.000;9.194;2022-11-15T06:03:43;11.20;99.90
5476;DHT22;2760;50.000;9.194;2022-11-15T06:06:29;9.40;99.90
5476;DHT22;2760;50.000;9.194;2022-11-15T06:09:14;10.60;99.90
5476;DHT22;2760;50.000;9.194;2022-11-15T06:12:02;11.10;99.90
5476;DHT22;2760;50.000;9.194;2022-11-15T06:14:47;9.70;99.90
5476;DHT22;2760;50.000;9.194;2022-11-15T06:17:35;10.90;99.90
5476;DHT22;2760;50.000;9.194;2022-11-15T06:20:21;9.60;99.90
5476;DHT22;2760;50.000;9.194;2022-11-15T06:23:06;9.50;99.90
5476;DHT22;2760;50.000;9.194;2022-11-15T06:25:52;9.50;99.90
5476;DHT22;2760;50.000;9.194;2022-11-15T06:28:40;9.60;99.90
5476;DHT22;2760;50.000;9.194;2022-11-15T06:31:27;9.50;99.90
5476;DHT22;2760;50.000;9.194;2022-11-15T06:36:59;9.60;99.90
5476;DHT22;2760;50.000;9.194;2022-11-15T06:39:45;9.60;99.90
5476;DHT22;2760;50.000;9.194;2022-11-15T06:42:31;11.20;99.90
5476;DHT22;2760;50.000;9.194;2022-11-15T06:45:18;9.60;99.90
5476;DHT22;2760;50.000;9.194;2022-11-15T06:48:05;9.60;99.90
5476;DHT22;2760;50.000;9.194;2022-11-15T06:50:51;9.60;99.90
5476;DHT22;2760;50.000;9.194;2022-11-15T06:53:36;9.60;99.90
5476;DHT22;2760;50.000;9.194;2022-11-15T06:56:22;12.40;99.90
5476;DHT22;2760;50.000;9.194;2022-11-15T06:59:08;9.60;99.90
5476;DHT22;2760;50.000;9.194;2022-11-15T07:01:55;11.40;99.90
5476;DHT22;2760;50.000;9.194;2022-11-15T07:07:29;9.60;99.90
5476;DHT22;2760;50.000;9.194;2022-11-15T07:10:15;9.60;99.90
5476;DHT22;2760;50.000;9.194;2022-11-15T07:13:01;9.60;99.90
5476;DHT22;2760;50.000;9.194;2022-11-15T07:15:47;9.50;99.90
5476;DHT22;2760;50.000;9.194;2022-11-15T07:18:35;12.20;99.90
5476;DHT22;2760;50.000;9.194;2022-11-15T07:21:21;9.40;99.90
5476;DHT22;2760;50.000;9.194;2022-11-15T07:24:07;9.70;99.90
5476;DHT22;2760;50.000;9.194;2022-11-15T07:26:54;9.50;99.90
5476;DHT22;2760;50.000;9.194;2022-11-15T07:29:40;11.10;99.90
5476;DHT22;2760;50.000;9.194;2022-11-15T07:32:26;9.50;99.90
5476;DHT22;2760;50.000;9.194;2022-11-15T07:35:14;9.60;99.90
5476;DHT22;2760;50.000;9.194;2022-11-15T07:38:01;9.60;99.90
5476;DHT22;2760;50.000;9.194;2022-11-15T07:40:55;9.70;99.90
5476;DHT22;2760;50.000;9.194;2022-11-15T07:43:41;9.80;99.90
5476;DHT22;2760;50.000;9.194;2022-11-15T07:46:26;8.60;99.90
5476;DHT22;2760;50.000;9.194;2022-11-15T07:49:12;9.90;99.90
5476;DHT22;2760;50.000;9.194;2022-11-15T07:51:59;10.00;99.90
5476;DHT22;2760;50.000;9.194;2022-11-15T07:54:45;10.00;99.90
5476;DHT22;2760;50.000;9.194;2022-11-15T07:57:31;11.40;99.90
5476;DHT22;2760;50.000;9.194;2022-11-15T08:00:17;10.10;99.90
5476;DHT22;2760;50.000;9.194;2022-11-15T08:03:05;10.10;99.90
5476;DHT22;2760;50.000;9.194;2022-11-15T08:05:52;10.30;99.90
5476;DHT22;2760;50.000;9.194;2022-11-15T08:08:40;10.20;99.90
5476;DHT22;2760;50.000;9.194;2022-11-15T08:11:27;10.40;99.90
5476;DHT22;2760;50.000;9.194;2022-11-15T08:14:13;10.40;99.90
5476;DHT22;2760;50.000;9.194;2022-11-15T08:16:59;13.10;99.90
5476;DHT22;2760;50.000;9.194;2022-11-15T08:19:44;10.50;99.90
5476;DHT22;2760;50.000;9.194;2022-11-15T08:22:30;10.60;99.90
5476;DHT22;2760;50.000;9.194;2022-11-15T08:25:19;11.80;99.90
5476;DHT22;2760;50.000;9.194;2022-11-15T08:28:07;11.40;99.90
5476;DHT22;2760;50.000;9.194;2022-11-15T08:30:53;10.90;99.90
5476;DHT22;2760;50.000;9.194;2022-11-15T08:33:40;13.30;99.90
5476;DHT22;2760;50.000;9.194;2022-11-15T08:36:28;11.10;99.90
5476;DHT22;2760;50.000;9.194;2022-11-15T08:39:15;12.90;99.90
5476;DHT22;2760;50.000;9.194;2022-11-15T08:42:02;11.40;99.90
5476;DHT22;2760;50.000;9.194;2022-11-15T08:44:48;11.60;99.90
5476;DHT22;2760;50.000;9.194;2022-11-15T08:47:37;12.00;99.90
5476;DHT22;2760;50.000;9.194;2022-11-15T08:50:22;11.60;99.90
5476;DHT22;2760;50.000;9.194;2022-11-15T08:53:08;11.80;99.90
5476;DHT22;2760;50.000;9.194;2022-11-15T08:55:54;13.50;99.90
5476;DHT22;2760;50.000;9.194;2022-11-15T08:58:43;13.40;99.90
5476;DHT22;2760;50.000;9.194;2022-11-15T09:01:31;13.60;99.90
5476;DHT22;2760;50.000;9.194;2022-11-15T09:04:16;14.10;99.90
5476;DHT22;2760;50.000;9.194;2022-11-15T09:07:02;14.50;99.90
5476;DHT22;2760;50.000;9.194;2022-11-15T09:09:48;12.20;99.90
5476;DHT22;2760;50.000;9.194;2022-11-15T09:12:33;14.00;99.90
5476;DHT22;2760;50.000;9.194;2022-11-15T09:15:20;13.90;99.90
5476;DHT22;2760;50.000;9.194;2022-11-15T09:18:06;14.90;99.90
5476;DHT22;2760;50.000;9.194;2022-11-15T09:20:54;14.30;99.90
5476;DHT22;2760;50.000;9.194;2022-11-15T09:23:41;13.10;99.90
5476;DHT22;2760;50.000;9.194;2022-11-15T09:26:26;11.20;99.90
5476;DHT22;2760;50.000;9.194;2022-11-15T09:29:12;12.80;99.90
5476;DHT22;2760;50.000;9.194;2022-11-15T09:31:59;12.90;99.90
5476;DHT22;2760;50.000;9.194;2022-11-15T09:34:44;15.20;99.90
5476;DHT22;2760;50.000;9.194;2022-11-15T09:37:31;13.00;99.90
5476;DHT22;2760;50.000;9.194;2022-11-15T09:40:17;12.60;99.90
5476;DHT22;2760;50.000;9.194;2022-11-15T09:43:28;13.20;99.90
5476;DHT22;2760;50.000;9.194;2022-11-15T09:46:21;13.30;99.90
5476;DHT22;2760;50.000;9.194;2022-11-15T09:49:14;13.30;99.90
5476;DHT22;2760;50.000;9.194;2022-11-15T09:52:07;14.80;99.90
5476;DHT22;2760;50.000;9.194;2022-11-15T09:54:38;13.40;99.90
5476;DHT22;2760;50.000;9.194;2022-11-15T09:57:11;13.50;99.90
5476;DHT22;2760;50.000;9.194;2022-11-15T09:59:58;15.20;99.90
5476;DHT22;2760;50.000;9.194;2022-11-15T10:02:42;13.60;99.90
5476;DHT22;2760;50.000;9.194;2022-11-15T10:05:20;15.30;99.90
5476;DHT22;2760;50.000;9.194;2022-11-15T10:07:55;13.60;99.90
5476;DHT22;2760;50.000;9.194;2022-11-15T10:10:29;13.70;99.90
5476;DHT22;2760;50.000;9.194;2022-11-15T10:12:57;13.60;99.90
5476;DHT22;2760;50.000;9.194;2022-11-15T10:15:26;13.60;99.90
5476;DHT22;2760;50.000;9.194;2022-11-15T10:18:12;15.80;99.90
5476;DHT22;2760;50.000;9.194;2022-11-15T10:20:57;14.90;99.90
5476;DHT22;2760;50.000;9.194;2022-11-15T10:23:25;16.10;99.90
5476;DHT22;2760;50.000;9.194;2022-11-15T10:25:55;13.90;99.90
5476;DHT22;2760;50.000;9.194;2022-11-15T10:28:26;13.90;99.90
5476;DHT22;2760;50.000;9.194;2022-11-15T10:30:55;15.10;99.90
5476;DHT22;2760;50.000;9.194;2022-11-15T10:33:34;15.60;99.90
5476;DHT22;2760;50.000;9.194;2022-11-15T10:36:21;16.10;99.90
5476;DHT22;2760;50.000;9.194;2022-11-15T10:38:58;14.20;99.90
5476;DHT22;2760;50.000;9.194;2022-11-15T10:41:31;14.40;99.90
5476;DHT22;2760;50.000;9.194;2022-11-15T10:44:25;14.30;99.90
5476;DHT22;2760;50.000;9.194;2022-11-15T10:49:59;14.40;99.90
5476;DHT22;2760;50.000;9.194;2022-11-15T10:52:30;14.40;99.90
5476;DHT22;2760;50.000;9.194;2022-11-15T10:55:04;14.40;99.90
5476;DHT22;2760;50.000;9.194;2022-11-15T10:57:33;14.50;99.90
5476;DHT22;2760;50.000;9.194;2022-11-15T11:00:07;14.90;99.90
5476;DHT22;2760;50.000;9.194;2022-11-15T11:02:36;14.50;99.90
5476;DHT22;2760;50.000;9.194;2022-11-15T11:05:06;14.60;99.90
5476;DHT22;2760;50.000;9.194;2022-11-15T11:07:56;14.40;99.90
5476;DHT22;2760;50.000;9.194;2022-11-15T11:10:24;16.40;99.90
5476;DHT22;2760;50.000;9.194;2022-11-15T11:12:51;14.40;99.90
5476;DHT22;2760;50.000;9.194;2022-11-15T11:15:18;14.40;99.90
5476;DHT22;2760;50.000;9.194;2022-11-15T11:18:06;14.50;99.90
5476;DHT22;2760;50.000;9.194;2022-11-15T11:20:39;14.50;99.90
5476;DHT22;2760;50.000;9.194;2022-11-15T11:23:33;14.40;99.90
5476;DHT22;2760;50.000;9.194;2022-11-15T11:26:11;14.40;99.90
5476;DHT22;2760;50.000;9.194;2022-11-15T11:28:52;14.50;99.90
5476;DHT22;2760;50.000;9.194;2022-11-15T11:31:28;14.40;99.90
5476;DHT22;2760;50.000;9.194;2022-11-15T11:34:02;16.10;99.90
5476;DHT22;2760;50.000;9.194;2022-11-15T11:36:37;14.40;99.90
5476;DHT22;2760;50.000;9.194;2022-11-15T11:39:19;14.40;99.90
5476;DHT22;2760;50.000;9.194;2022-11-15T11:41:59;14.40;99.90
5476;DHT22;2760;50.000;9.194;2022-11-15T11:44:43;14.80;99.90
5476;DHT22;2760;50.000;9.194;2022-11-15T11:47:23;14.30;99.90
5476;DHT22;2760;50.000;9.194;2022-11-15T11:49:52;14.40;99.90
5476;DHT22;2760;50.000;9.194;2022-11-15T11:52:24;15.90;99.90
5476;DHT22;2760;50.000;9.194;2022-11-15T11:55:00;15.00;99.90
5476;DHT22;2760;50.000;9.194;2022-11-15T11:57:33;12.90;99.90
5476;DHT22;2760;50.000;9.194;2022-11-15T12:00:12;14.50;99.90
5476;DHT22;2760;50.000;9.194;2022-11-15T12:02:43;14.70;99.90
5476;DHT22;2760;50.000;9.194;2022-11-15T12:05:16;15.10;99.90
5476;DHT22;2760;50.000;9.194;2022-11-15T12:07:46;14.80;99.90
5476;DHT22;2760;50.000;9.194;2022-11-15T12:10:22;16.10;99.90
5476;DHT22;2760;50.000;9.194;2022-11-15T12:12:55;17.00;99.90
5476;DHT22;2760;50.000;9.194;2022-11-15T12:15:26;14.80;99.90
5476;DHT22;2760;50.000;9.194;2022-11-15T12:17:55;14.80;99.90
5476;DHT22;2760;50.000;9.194;2022-11-15T12:20:26;14.80;99.90
5476;DHT22;2760;50.000;9.194;2022-11-15T12:22:56;15.40;99.90
5476;DHT22;2760;50.000;9.194;2022-11-15T12:25:29;15.00;99.90
5476;DHT22;2760;50.000;9.194;2022-11-15T12:28:01;16.00;99.90
5476;DHT22;2760;50.000;9.194;2022-11-15T12:30:42;15.40;99.90
5476;DHT22;2760;50.000;9.194;2022-11-15T12:33:32;14.20;99.90
5476;DHT22;2760;50.000;9.194;2022-11-15T12:36:02;16.20;99.90
5476;DHT22;2760;50.000;9.194;2022-11-15T12:38:53;16.20;99.90
5476;DHT22;2760;50.000;9.194;2022-11-15T12:41:24;16.00;99.90
5476;DHT22;2760;50.000;9.194;2022-11-15T12:43:51;16.00;99.90
5476;DHT22;2760;50.000;9.194;2022-11-15T12:46:23;15.90;99.90
5476;DHT22;2760;50.000;9.194;2022-11-15T12:48:56;15.80;99.90
5476;DHT22;2760;50.000;9.194;2022-11-15T12:54:54;16.20;99.90
5476;DHT22;2760;50.000;9.194;2022-11-15T12:57:40;17.70;99.90
5476;DHT22;2760;50.000;9.194;2022-11-15T13:03:25;16.30;99.90
5476;DHT22;2760;50.000;9.194;2022-11-15T13:05:58;16.10;99.90
5476;DHT22;2760;50.000;9.194;2022-11-15T13:08:48;15.90;99.90
5476;DHT22;2760;50.000;9.194;2022-11-15T13:11:47;17.70;99.90
5476;DHT22;2760;50.000;9.194;2022-11-15T13:14:42;15.60;99.90
5476;DHT22;2760;50.000;9.194;2022-11-15T13:17:28;15.70;99.90
5476;DHT22;2760;50.000;9.194;2022-11-15T13:20:22;15.80;99.90
5476;DHT22;2760;50.000;9.194;2022-11-15T13:22:51;15.60;99.90
5476;DHT22;2760;50.000;9.194;2022-11-15T13:25:50;15.50;99.90
5476;DHT22;2760;50.000;9.194;2022-11-15T13:28:30;15.60;99.90
5476;DHT22;2760;50.000;9.194;2022-11-15T13:31:03;15.70;99.90
5476;DHT22;2760;50.000;9.194;2022-11-15T13:33:40;13.60;99.90
5476;DHT22;2760;50.000;9.194;2022-11-15T13:36:12;17.20;99.90
5476;DHT22;2760;50.000;9.194;2022-11-15T13:38:42;16.30;99.90
5476;DHT22;2760;50.000;9.194;2022-11-15T13:41:18;15.40;99.90
5476;DHT22;2760;50.000;9.194;2022-11-15T13:43:46;15.40;99.90
5476;DHT22;2760;50.000;9.194;2022-11-15T13:46:17;15.50;99.90
5476;DHT22;2760;50.000;9.194;2022-11-15T13:48:46;15.40;99.90
5476;DHT22;2760;50.000;9.194;2022-11-15T13:51:17;15.40;99.90
5476;DHT22;2760;50.000;9.194;2022-11-15T13:53:49;15.40;99.90
5476;DHT22;2760;50.000;9.194;2022-11-15T13:56:18;15.40;99.90
5476;DHT22;2760;50.000;9.194;2022-11-15T13:58:49;15.20;99.90
5476;DHT22;2760;50.000;9.194;2022-11-15T14:01:32;15.10;99.90
5476;DHT22;2760;50.000;9.194;2022-11-15T14:04:03;15.10;99.90
5476;DHT22;2760;50.000;9.194;2022-11-15T14:06:31;16.70;99.90
5476;DHT22;2760;50.000;9.194;2022-11-15T14:09:24;15.60;99.90
5476;DHT22;2760;50.000;9.194;2022-11-15T14:11:56;14.90;99.90
5476;DHT22;2760;50.000;9.194;2022-11-15T14:14:24;16.90;99.90
5476;DHT22;2760;50.000;9.194;2022-11-15T14:16:55;14.90;99.90
5476;DHT22;2760;50.000;9.194;2022-11-15T14:19:39;14.80;99.90
5476;DHT22;2760;50.000;9.194;2022-11-15T14:22:13;14.70;99.90
5476;DHT22;2760;50.000;9.194;2022-11-15T14:24:43;16.00;99.90
5476;DHT22;2760;50.000;9.194;2022-11-15T14:27:20;14.70;99.90
5476;DHT22;2760;50.000;9.194;2022-11-15T14:29:49;14.60;99.90
5476;DHT22;2760;50.000;9.194;2022-11-15T14:32:20;15.70;99.90
5476;DHT22;2760;50.000;9.194;2022-11-15T14:34:47;14.70;99.90
5476;DHT22;2760;50.000;9.194;2022-11-15T14:37:23;16.70;99.90
5476;DHT22;2760;50.000;9.194;2022-11-15T14:39:50;14.90;99.90
5476;DHT22;2760;50.000;9.194;2022-11-15T14:42:20;14.60;99.90
5476;DHT22;2760;50.000;9.194;2022-11-15T14:44:48;14.70;99.90
5476;DHT22;2760;50.000;9.194;2022-11-15T14:47:15;15.90;99.90
5476;DHT22;2760;50.000;9.194;2022-11-15T14:49:44;14.60;99.90
5476;DHT22;2760;50.000;9.194;2022-11-15T14:52:26;15.80;99.90
5476;DHT22;2760;50.000;9.194;2022-11-15T14:55:02;14.60;99.90
5476;DHT22;2760;50.000;9.194;2022-11-15T14:57:30;14.40;99.90
5476;DHT22;2760;50.000;9.194;2022-11-15T14:59:57;14.40;99.90
5476;DHT22;2760;50.000;9.194;2022-11-15T15:02:39;16.40;99.90
5476;DHT22;2760;50.000;9.194;2022-11-15T15:05:15;15.10;99.90
5476;DHT22;2760;50.000;9.194;2022-11-15T15:07:42;15.30;99.90
5476;DHT22;2760;50.000;9.194;2022-11-15T15:10:10;14.20;99.90
5476;DHT22;2760;50.000;9.194;2022-11-15T15:12:38;16.00;99.90
5476;DHT22;2760;50.000;9.194;2022-11-15T15:15:12;14.20;99.90
5476;DHT22;2760;50.000;9.194;2022-11-15T15:17:40;14.10;99.90
5476;DHT22;2760;50.000;9.194;2022-11-15T15:20:08;14.10;99.90
5476;DHT22;2760;50.000;9.194;2022-11-15T15:22:38;14.10;99.90
5476;DHT22;2760;50.000;9.194;2022-11-15T15:25:20;15.90;99.90
5476;DHT22;2760;50.000;9.194;2022-11-15T15:27:48;14.00;99.90
5476;DHT22;2760;50.000;9.194;2022-11-15T15:30:15;15.70;99.90
5476;DHT22;2760;50.000;9.194;2022-11-15T15:32:43;14.00;99.90
5476;DHT22;2760;50.000;9.194;2022-11-15T15:35:12;15.00;99.90
5476;DHT22;2760;50.000;9.194;2022-11-15T15:37:41;13.80;99.90
5476;DHT22;2760;50.000;9.194;2022-11-15T15:40:13;16.00;99.90
5476;DHT22;2760;50.000;9.194;2022-11-15T15:42:41;14.80;99.90
5476;DHT22;2760;50.000;9.194;2022-11-15T15:45:12;13.70;99.90
5476;DHT22;2760;50.000;9.194;2022-11-15T15:47:40;13.70;99.90
5476;DHT22;2760;50.000;9.194;2022-11-15T15:50:23;13.60;99.90
5476;DHT22;2760;50.000;9.194;2022-11-15T15:52:53;13.50;99.90
5476;DHT22;2760;50.000;9.194;2022-11-15T15:55:21;13.50;99.90
5476;DHT22;2760;50.000;9.194;2022-11-15T15:57:49;13.40;99.90
5476;DHT22;2760;50.000;9.194;2022-11-15T16:00:18;13.40;99.90
5476;DHT22;2760;50.000;9.194;2022-11-15T16:02:48;13.40;99.90
5476;DHT22;2760;50.000;9.194;2022-11-15T16:05:16;13.40;99.90
5476;DHT22;2760;50.000;9.194;2022-11-15T16:07:44;13.30;99.90
5476;DHT22;2760;50.000;9.194;2022-11-15T16:10:22;13.20;99.90
5476;DHT22;2760;50.000;9.194;2022-11-15T16:12:50;13.30;99.90
5476;DHT22;2760;50.000;9.194;2022-11-15T16:15:21;14.90;99.90
5476;DHT22;2760;50.000;9.194;2022-11-15T16:17:51;14.70;99.90
5476;DHT22;2760;50.000;9.194;2022-11-15T16:20:33;14.10;99.90
5476;DHT22;2760;50.000;9.194;2022-11-15T16:23:17;13.30;99.90
5476;DHT22;2760;50.000;9.194;2022-11-15T16:25:48;13.30;99.90
5476;DHT22;2760;50.000;9.194;2022-11-15T16:28:21;15.70;99.90
5476;DHT22;2760;50.000;9.194;2022-11-15T16:31:03;13.20;99.90
5476;DHT22;2760;50.000;9.194;2022-11-15T16:33:34;13.30;99.90
5476;DHT22;2760;50.000;9.194;2022-11-15T16:36:05;13.30;99.90
5476;DHT22;2760;50.000;9.194;2022-11-15T16:38:46;13.30;99.90
5476;DHT22;2760;50.000;9.194;2022-11-15T16:41:17;13.20;99.90
5476;DHT22;2760;50.000;9.194;2022-11-15T16:43:48;14.60;99.90
5476;DHT22;2760;50.000;9.194;2022-11-15T16:46:22;13.10;99.90
5476;DHT22;2760;50.000;9.194;2022-11-15T16:48:52;13.20;99.90
5476;DHT22;2760;50.000;9.194;2022-11-15T16:51:20;14.70;99.90
5476;DHT22;2760;50.000;9.194;2022-11-15T16:53:50;13.30;99.90
5476;DHT22;2760;50.000;9.194;2022-11-15T16:56:27;14.50;99.90
5476;DHT22;2760;50.000;9.194;2022-11-15T16:58:55;15.40;99.90
5476;DHT22;2760;50.000;9.194;2022-11-15T17:01:31;13.10;99.90
5476;DHT22;2760;50.000;9.194;2022-11-15T17:04:00;13.10;99.90
5476;DHT22;2760;50.000;9.194;2022-11-15T17:06:39;13.10;99.90
5476;DHT22;2760;50.000;9.194;2022-11-15T17:09:10;13.00;99.90
5476;DHT22;2760;50.000;9.194;2022-11-15T17:11:43;13.10;99.90
5476;DHT22;2760;50.000;9.194;2022-11-15T17:14:13;14.60;99.90
5476;DHT22;2760;50.000;9.194;2022-11-15T17:16:42;13.10;99.90
5476;DHT22;2760;50.000;9.194;2022-11-15T17:19:13;13.00;99.90
5476;DHT22;2760;50.000;9.194;2022-11-15T17:21:47;12.80;99.90
5476;DHT22;2760;50.000;9.194;2022-11-15T17:24:15;13.30;99.90
5476;DHT22;2760;50.000;9.194;2022-11-15T17:26:44;12.70;99.90
5476;DHT22;2760;50.000;9.194;2022-11-15T17:29:11;12.80;99.90
5476;DHT22;2760;50.000;9.194;2022-11-15T17:31:38;14.30;99.90
5476;DHT22;2760;50.000;9.194;2022-11-15T17:34:07;14.40;99.90
5476;DHT22;2760;50.000;9.194;2022-11-15T17:36:34;12.80;99.90
5476;DHT22;2760;50.000;9.194;2022-11-15T17:39:06;14.30;99.90
5476;DHT22;2760;50.000;9.194;2022-11-15T17:41:33;12.90;99.90
5476;DHT22;2760;50.000;9.194;2022-11-15T17:44:02;13.50;99.90
5476;DHT22;2760;50.000;9.194;2022-11-15T17:46:31;13.00;99.90
5476;DHT22;2760;50.000;9.194;2022-11-15T17:49:01;15.00;99.90
5476;DHT22;2760;50.000;9.194;2022-11-15T17:51:28;11.70;99.90
5476;DHT22;2760;50.000;9.194;2022-11-15T17:53:56;13.00;99.90
5476;DHT22;2760;50.000;9.194;2022-11-15T17:56:25;13.90;99.90
5476;DHT22;2760;50.000;9.194;2022-11-15T17:58:54;14.10;99.90